createdAt,value
2019-02-17T00:00:46.699Z,16.17
2019-02-17T00:03:13.905Z,14.27
2019-02-17T00:05:41.108Z,14.67
2019-02-17T00:08:08.319Z,14.07
2019-02-17T00:10:35.484Z,15.03
2019-02-17T00:13:02.670Z,16.73
2019-02-17T00:15:29.863Z,19.53
2019-02-17T00:17:57.074Z,20.90
2019-02-17T00:20:24.259Z,19.23
2019-02-17T00:22:51.506Z,21.53
2019-02-17T00:25:20.424Z,21.93
2019-02-17T00:27:48.182Z,17.07
2019-02-17T00:30:15.370Z,18.50
2019-02-17T00:32:42.569Z,19.63
2019-02-17T00:35:09.842Z,19.67
2019-02-17T00:37:37.009Z,19.27
2019-02-17T00:40:04.461Z,20.47
2019-02-17T00:42:31.646Z,17.00
2019-02-17T00:44:59.393Z,17.93
2019-02-17T00:47:26.558Z,17.83
2019-02-17T00:49:53.730Z,14.83
2019-02-17T00:52:20.918Z,14.53
2019-02-17T00:54:48.086Z,14.27
2019-02-17T00:57:15.261Z,13.03
2019-02-17T00:59:42.462Z,13.20
2019-02-17T01:02:09.647Z,14.10
2019-02-17T01:04:36.843Z,13.90
2019-02-17T01:07:04.034Z,14.43
2019-02-17T01:09:31.285Z,13.63
2019-02-17T01:11:58.951Z,12.77
2019-02-17T01:14:26.129Z,13.13
2019-02-17T01:16:53.841Z,13.77
2019-02-17T01:19:21.020Z,12.40
2019-02-17T01:21:48.216Z,13.37
2019-02-17T01:24:15.386Z,12.37
2019-02-17T01:26:42.572Z,11.70
2019-02-17T01:29:19.754Z,12.43
2019-02-17T01:31:38.667Z,12.10
2019-02-17T01:34:07.457Z,12.07
2019-02-17T01:36:34.659Z,11.73
2019-02-17T01:39:01.966Z,11.93
2019-02-17T01:41:29.160Z,10.53
2019-02-17T01:43:56.331Z,12.53
2019-02-17T01:46:23.502Z,10.90
2019-02-17T01:48:50.691Z,12.03
2019-02-17T01:51:17.853Z,11.10
2019-02-17T01:53:45.061Z,11.37
2019-02-17T01:56:12.283Z,11.80
2019-02-17T01:58:39.454Z,11.00
2019-02-17T02:01:06.622Z,9.87
2019-02-17T02:03:33.823Z,10.07
2019-02-17T02:06:00.987Z,11.00
2019-02-17T02:08:28.162Z,9.17
2019-02-17T02:10:55.346Z,10.33
2019-02-17T02:13:22.545Z,10.37
2019-02-17T02:15:49.723Z,9.87
2019-02-17T02:18:16.894Z,10.30
2019-02-17T02:20:44.070Z,9.90
2019-02-17T02:23:11.846Z,8.60
2019-02-17T02:25:39.045Z,8.83
2019-02-17T02:28:06.223Z,9.73
2019-02-17T02:30:33.839Z,9.10
2019-02-17T02:33:01.028Z,10.00
2019-02-17T02:35:28.275Z,9.40
2019-02-17T02:37:55.487Z,10.47
2019-02-17T02:40:22.724Z,11.23
2019-02-17T02:42:49.903Z,9.90
2019-02-17T02:45:17.074Z,9.33
2019-02-17T02:47:44.263Z,9.23
2019-02-17T02:50:11.422Z,8.87
2019-02-17T02:52:39.118Z,10.17
2019-02-17T02:55:06.953Z,9.13
2019-02-17T02:57:34.134Z,9.47
2019-02-17T03:00:01.324Z,9.77
2019-02-17T03:02:28.604Z,8.57
2019-02-17T03:04:55.852Z,9.20
2019-02-17T03:07:23.023Z,9.13
2019-02-17T03:09:50.187Z,9.57
2019-02-17T03:12:17.371Z,7.87
2019-02-17T03:14:45.169Z,8.97
2019-02-17T03:17:12.356Z,9.47
2019-02-17T03:19:39.533Z,8.90
2019-02-17T03:22:06.729Z,9.27
2019-02-17T03:24:34.408Z,8.77
2019-02-17T03:27:01.584Z,9.90
2019-02-17T03:29:28.770Z,9.33
2019-02-17T03:31:55.938Z,8.30
2019-02-17T03:34:23.141Z,9.00
2019-02-17T03:36:50.320Z,9.33
2019-02-17T03:39:17.577Z,8.93
2019-02-17T03:41:44.759Z,10.10
2019-02-17T03:44:12.411Z,8.23
2019-02-17T03:46:39.588Z,8.50
2019-02-17T03:49:06.759Z,8.67
2019-02-17T03:51:33.956Z,8.57
2019-02-17T03:54:01.131Z,8.40
2019-02-17T03:56:28.308Z,8.33
2019-02-17T03:58:55.484Z,8.97
2019-02-17T04:01:22.664Z,9.43
2019-02-17T04:03:49.842Z,8.97
2019-02-17T04:06:17.030Z,8.87
2019-02-17T04:08:44.201Z,8.80
2019-02-17T04:11:11.415Z,8.27
2019-02-17T04:13:39.190Z,9.63
2019-02-17T04:16:06.900Z,9.57
2019-02-17T04:18:34.069Z,8.47
2019-02-17T04:21:01.234Z,8.53
2019-02-17T04:23:31.610Z,9.37
2019-02-17T04:25:57.306Z,9.27
2019-02-17T04:28:24.507Z,8.63
2019-02-17T04:30:51.682Z,9.47
2019-02-17T04:33:18.862Z,8.83
2019-02-17T04:35:46.060Z,8.83
2019-02-17T04:38:13.298Z,8.63
2019-02-17T04:40:40.473Z,9.07
2019-02-17T04:43:07.646Z,7.97
2019-02-17T04:45:34.819Z,8.13
2019-02-17T04:48:02.000Z,8.93
2019-02-17T04:50:29.176Z,8.13
2019-02-17T04:52:56.352Z,8.80
2019-02-17T04:55:23.521Z,9.20
2019-02-17T04:57:50.714Z,9.70
2019-02-17T05:00:17.869Z,8.43
2019-02-17T05:02:45.055Z,8.73
2019-02-17T05:05:12.237Z,9.80
2019-02-17T05:07:39.440Z,8.90
2019-02-17T05:10:07.263Z,8.27
2019-02-17T05:12:34.436Z,9.63
2019-02-17T05:15:01.634Z,10.10
2019-02-17T05:17:28.896Z,10.00
2019-02-17T05:19:56.416Z,10.00
2019-02-17T05:22:23.598Z,9.37
2019-02-17T05:24:50.966Z,8.00
2019-02-17T05:27:18.153Z,9.57
2019-02-17T05:29:45.379Z,9.30
2019-02-17T05:32:12.563Z,8.00
2019-02-17T05:34:39.744Z,9.10
2019-02-17T05:37:06.929Z,8.63
2019-02-17T05:39:34.127Z,10.03
2019-02-17T05:42:01.322Z,10.73
2019-02-17T05:44:28.613Z,8.87
2019-02-17T05:46:55.812Z,9.63
2019-02-17T05:49:22.983Z,9.57
2019-02-17T05:51:50.178Z,9.83
2019-02-17T05:54:17.354Z,8.93
2019-02-17T05:56:44.545Z,9.83
2019-02-17T05:59:11.734Z,10.30
2019-02-17T06:01:39.389Z,10.60
2019-02-17T06:04:06.614Z,8.57
2019-02-17T06:06:33.793Z,8.20
2019-02-17T06:09:00.964Z,8.70
2019-02-17T06:11:28.146Z,9.00
2019-02-17T06:13:55.334Z,11.77
2019-02-17T06:16:22.528Z,10.20
2019-02-17T06:18:49.690Z,8.90
2019-02-17T06:21:17.369Z,9.53
2019-02-17T06:23:44.551Z,10.97
2019-02-17T06:26:11.803Z,10.93
2019-02-17T06:28:38.977Z,9.63
2019-02-17T06:31:13.973Z,9.13
2019-02-17T06:33:36.110Z,9.20
2019-02-17T06:36:03.721Z,10.07
2019-02-17T06:38:30.898Z,9.47
2019-02-17T06:40:58.084Z,8.97
2019-02-17T06:43:26.110Z,8.27
2019-02-17T06:45:53.311Z,10.27
2019-02-17T06:48:21.024Z,9.47
2019-02-17T06:50:48.210Z,9.67
2019-02-17T06:53:15.938Z,10.33
2019-02-17T06:55:56.470Z,10.53
2019-02-17T06:58:23.730Z,9.67
2019-02-17T07:00:51.105Z,10.70
2019-02-17T07:03:18.275Z,11.03
2019-02-17T07:06:02.025Z,10.47
2019-02-17T07:08:29.289Z,12.40
2019-02-17T07:10:56.543Z,13.67
2019-02-17T07:13:24.239Z,12.83
2019-02-17T07:15:51.419Z,11.23
2019-02-17T07:18:18.621Z,13.43
2019-02-17T07:20:45.794Z,10.87
2019-02-17T07:23:15.113Z,10.93
2019-02-17T07:25:42.536Z,11.30
2019-02-17T07:28:09.725Z,10.00
2019-02-17T07:30:37.057Z,9.53
2019-02-17T07:33:04.249Z,9.90
2019-02-17T07:35:31.446Z,10.33
2019-02-17T07:37:58.633Z,9.87
2019-02-17T07:40:26.249Z,9.17
2019-02-17T07:42:53.447Z,10.43
2019-02-17T07:45:20.629Z,10.70
2019-02-17T07:47:47.823Z,10.03
2019-02-17T07:50:14.999Z,10.27
2019-02-17T07:52:42.179Z,10.53
2019-02-17T07:55:10.628Z,10.80
2019-02-17T07:57:38.461Z,11.77
2019-02-17T08:00:07.774Z,11.07
2019-02-17T08:02:35.007Z,11.57
2019-02-17T08:05:02.206Z,12.30
2019-02-17T08:07:29.385Z,11.60
2019-02-17T08:09:56.576Z,10.47
2019-02-17T08:12:23.772Z,10.93
2019-02-17T08:14:51.482Z,10.40
2019-02-17T08:17:18.694Z,12.43
2019-02-17T08:19:46.401Z,11.40
2019-02-17T08:22:13.715Z,11.17
2019-02-17T08:24:41.294Z,11.40
2019-02-17T08:27:08.494Z,10.77
2019-02-17T08:29:35.684Z,11.40
2019-02-17T08:32:02.866Z,11.93
2019-02-17T08:34:30.057Z,12.20
2019-02-17T08:36:57.238Z,12.50
2019-02-17T08:39:24.413Z,11.50
2019-02-17T08:41:52.068Z,13.10
2019-02-17T08:44:19.256Z,12.13
2019-02-17T08:46:46.447Z,12.10
2019-02-17T08:49:13.622Z,11.13
2019-02-17T08:51:40.808Z,11.87
2019-02-17T08:54:07.994Z,11.70
2019-02-17T08:56:35.167Z,11.10
2019-02-17T08:59:02.376Z,11.07
2019-02-17T09:01:29.566Z,10.73
2019-02-17T09:03:56.739Z,10.50
2019-02-17T09:06:23.931Z,10.40
2019-02-17T09:08:51.112Z,13.23
2019-02-17T09:11:18.306Z,12.40
2019-02-17T09:13:45.495Z,12.17
2019-02-17T09:16:12.674Z,12.23
2019-02-17T09:18:39.852Z,12.10
2019-02-17T09:21:07.025Z,11.37
2019-02-17T09:23:34.221Z,12.03
2019-02-17T09:26:01.407Z,12.67
2019-02-17T09:28:28.586Z,11.83
2019-02-17T09:30:56.227Z,12.57
2019-02-17T09:33:23.443Z,12.73
2019-02-17T09:35:50.635Z,12.43
2019-02-17T09:38:17.879Z,13.80
2019-02-17T09:40:45.158Z,13.73
2019-02-17T09:43:12.532Z,13.83
2019-02-17T09:45:39.701Z,14.40
2019-02-17T09:48:07.468Z,13.90
2019-02-17T09:50:34.646Z,14.13
2019-02-17T09:53:01.844Z,14.23
2019-02-17T09:55:29.022Z,14.47
2019-02-17T09:57:56.201Z,15.00
2019-02-17T10:00:23.383Z,15.63
2019-02-17T10:02:50.554Z,15.97
2019-02-17T10:05:17.729Z,13.93
2019-02-17T10:07:46.050Z,15.43
2019-02-17T10:10:14.860Z,14.80
2019-02-17T10:12:42.047Z,14.47
2019-02-17T10:15:10.539Z,14.23
2019-02-17T10:17:37.844Z,14.43
2019-02-17T10:20:06.858Z,14.77
2019-02-17T10:22:34.034Z,15.83
2019-02-17T10:25:01.242Z,15.37
2019-02-17T10:27:28.492Z,15.17
2019-02-17T10:29:55.707Z,16.63
2019-02-17T10:32:22.951Z,16.50
2019-02-17T10:34:50.131Z,16.00
2019-02-17T10:37:17.335Z,15.23
2019-02-17T10:39:45.331Z,16.37
2019-02-17T10:42:12.532Z,17.53
2019-02-17T10:44:39.723Z,16.60
2019-02-17T10:47:06.907Z,17.13
2019-02-17T10:49:34.104Z,16.53
2019-02-17T10:52:01.278Z,17.80
2019-02-17T10:54:28.466Z,17.80
2019-02-17T10:56:55.688Z,17.07
2019-02-17T10:59:22.887Z,16.50
2019-02-17T11:01:50.123Z,17.53
2019-02-17T11:04:17.782Z,19.10
2019-02-17T11:06:44.983Z,17.53
2019-02-17T11:09:16.430Z,16.97
2019-02-17T11:11:43.632Z,18.20
2019-02-17T11:14:10.878Z,18.17
2019-02-17T11:16:38.784Z,17.43
2019-02-17T11:19:05.994Z,17.23
2019-02-17T11:21:33.183Z,17.87
2019-02-17T11:24:00.390Z,17.10
2019-02-17T11:26:27.575Z,17.45
2019-02-17T11:28:54.796Z,16.57
2019-02-17T11:31:22.014Z,18.07
2019-02-17T11:33:49.713Z,17.65
2019-02-17T11:36:16.886Z,16.40
2019-02-17T11:38:44.078Z,16.75
2019-02-17T11:41:12.663Z,19.63
2019-02-17T11:43:40.173Z,18.12
2019-02-17T11:46:07.410Z,17.55
2019-02-17T11:48:34.592Z,17.50
2019-02-17T11:51:01.771Z,17.92
2019-02-17T11:53:28.967Z,17.92
2019-02-17T11:55:56.149Z,18.27
2019-02-17T11:58:23.331Z,17.50
2019-02-17T12:00:50.518Z,18.35
2019-02-17T12:03:17.690Z,19.92
2019-02-17T12:05:44.872Z,18.52
2019-02-17T12:08:12.062Z,16.27
2019-02-17T12:10:39.263Z,19.02
2019-02-17T12:13:06.443Z,17.45
2019-02-17T12:15:34.207Z,18.25
2019-02-17T12:18:01.399Z,17.23
2019-02-17T12:20:42.223Z,18.27
2019-02-17T12:23:13.762Z,18.45
2019-02-17T12:25:45.275Z,17.92
2019-02-17T12:28:14.115Z,17.92
2019-02-17T12:30:43.068Z,17.55
2019-02-17T12:33:18.373Z,17.70
2019-02-17T12:35:39.706Z,19.17
2019-02-17T12:38:07.327Z,18.73
2019-02-17T12:40:34.509Z,17.92
2019-02-17T12:43:01.720Z,17.67
2019-02-17T12:45:28.890Z,20.48
2019-02-17T12:47:58.322Z,18.23
2019-02-17T12:50:25.440Z,18.25
2019-02-17T12:52:52.602Z,18.20
2019-02-17T12:55:19.799Z,19.05
2019-02-17T12:57:46.971Z,18.77
2019-02-17T13:00:16.612Z,19.35
2019-02-17T13:02:43.789Z,18.90
2019-02-17T13:05:10.969Z,18.12
2019-02-17T13:07:38.659Z,18.50
2019-02-17T13:10:07.130Z,20.70
2019-02-17T13:12:34.328Z,18.35
2019-02-17T13:15:01.514Z,18.10
2019-02-17T13:17:28.699Z,20.97
2019-02-17T13:19:55.905Z,18.90
2019-02-17T13:22:23.142Z,19.62
2019-02-17T13:24:50.317Z,19.87
2019-02-17T13:27:17.517Z,17.50
2019-02-17T13:29:44.684Z,19.75
2019-02-17T13:32:11.878Z,19.80
2019-02-17T13:34:39.046Z,18.50
2019-02-17T13:37:06.238Z,19.60
2019-02-17T13:39:33.413Z,17.80
2019-02-17T13:42:00.583Z,19.45
2019-02-17T13:44:27.843Z,18.98
2019-02-17T13:46:55.026Z,21.37
2019-02-17T13:49:22.208Z,20.15
2019-02-17T13:51:49.391Z,19.65
2019-02-17T13:54:17.051Z,20.10
2019-02-17T13:56:44.223Z,20.68
2019-02-17T13:59:11.432Z,21.37
2019-02-17T14:01:38.620Z,21.73
2019-02-17T14:04:05.865Z,22.22
2019-02-17T14:06:33.508Z,19.00
2019-02-17T14:09:00.687Z,20.85
2019-02-17T14:11:27.890Z,20.80
2019-02-17T14:13:55.066Z,20.85
2019-02-17T14:16:22.260Z,21.65
2019-02-17T14:18:49.990Z,21.57
2019-02-17T14:21:17.157Z,33.02
2019-02-17T14:23:44.895Z,37.80
2019-02-17T14:26:12.081Z,21.87
2019-02-17T14:28:39.792Z,23.40
2019-02-17T14:31:07.012Z,22.67
2019-02-17T14:33:34.249Z,23.07
2019-02-17T14:36:01.550Z,22.67
2019-02-17T14:38:28.753Z,23.50
2019-02-17T14:40:56.464Z,22.37
2019-02-17T14:43:23.656Z,21.90
2019-02-17T14:45:50.832Z,23.67
2019-02-17T14:48:17.999Z,22.67
2019-02-17T14:50:45.222Z,21.57
2019-02-17T14:53:12.405Z,20.63
2019-02-17T14:55:39.594Z,22.93
2019-02-17T14:58:06.784Z,24.40
2019-02-17T15:00:34.010Z,21.17
2019-02-17T15:03:01.223Z,21.67
2019-02-17T15:05:28.401Z,21.00
2019-02-17T15:07:55.602Z,19.23
2019-02-17T15:10:23.857Z,19.63
2019-02-17T15:12:51.353Z,19.47
2019-02-17T15:15:18.529Z,18.93
2019-02-17T15:17:45.698Z,19.90
2019-02-17T15:20:16.798Z,18.80
2019-02-17T15:22:43.966Z,19.87
2019-02-17T15:25:11.723Z,21.23
2019-02-17T15:27:38.924Z,19.13
2019-02-17T15:30:12.709Z,19.60
2019-02-17T15:32:39.883Z,20.00
2019-02-17T15:35:07.109Z,18.30
2019-02-17T15:37:34.289Z,20.30
2019-02-17T15:40:01.456Z,19.80
2019-02-17T15:42:28.656Z,18.73
2019-02-17T15:44:55.829Z,18.60
2019-02-17T15:47:23.010Z,18.50
2019-02-17T15:49:50.206Z,17.97
2019-02-17T15:52:18.001Z,18.93
2019-02-17T15:54:46.268Z,18.63
2019-02-17T15:57:13.465Z,17.90
2019-02-17T15:59:40.639Z,17.87
2019-02-17T16:02:07.826Z,17.80
2019-02-17T16:04:35.510Z,17.83
2019-02-17T16:07:02.705Z,17.53
2019-02-17T16:09:29.908Z,16.43
2019-02-17T16:11:57.084Z,17.53
2019-02-17T16:14:24.298Z,18.20
2019-02-17T16:16:51.973Z,16.80
2019-02-17T16:19:19.147Z,18.67
2019-02-17T16:21:46.502Z,18.13
2019-02-17T16:24:13.684Z,18.50
2019-02-17T16:26:40.876Z,16.73
2019-02-17T16:29:08.458Z,14.87
2019-02-17T16:31:35.623Z,17.20
2019-02-17T16:34:02.799Z,17.27
2019-02-17T16:36:30.000Z,17.60
2019-02-17T16:38:57.183Z,16.13
2019-02-17T16:41:24.898Z,14.40
2019-02-17T16:43:52.085Z,15.10
2019-02-17T16:46:19.812Z,14.97
2019-02-17T16:48:47.086Z,14.73
2019-02-17T16:51:14.731Z,15.77
2019-02-17T16:53:41.918Z,15.00
2019-02-17T16:56:09.142Z,14.43
2019-02-17T16:58:36.314Z,14.03
2019-02-17T17:01:04.363Z,14.97
2019-02-17T17:03:31.774Z,14.07
2019-02-17T17:05:59.492Z,14.33
2019-02-17T17:08:26.678Z,14.50
2019-02-17T17:10:54.369Z,13.87
2019-02-17T17:13:21.542Z,14.63
2019-02-17T17:15:48.738Z,15.53
2019-02-17T17:18:15.939Z,18.37
2019-02-17T17:20:43.571Z,14.03
2019-02-17T17:23:10.773Z,13.37
2019-02-17T17:25:37.954Z,13.53
2019-02-17T17:28:05.149Z,13.80
2019-02-17T17:30:32.330Z,12.57
2019-02-17T17:32:59.997Z,13.10
2019-02-17T17:35:27.183Z,13.60
2019-02-17T17:37:54.351Z,12.73
2019-02-17T17:40:21.555Z,13.13
2019-02-17T17:42:48.745Z,13.33
2019-02-17T17:45:17.572Z,13.40
2019-02-17T17:47:44.754Z,12.50
2019-02-17T17:50:12.712Z,13.33
2019-02-17T17:52:40.519Z,13.07
2019-02-17T17:55:08.568Z,14.03
2019-02-17T17:57:35.754Z,12.87
2019-02-17T18:00:04.115Z,12.93
2019-02-17T18:02:31.288Z,12.60
2019-02-17T18:05:08.436Z,12.33
2019-02-17T18:07:27.642Z,14.17
2019-02-17T18:09:55.047Z,14.33
2019-02-17T18:12:22.898Z,13.87
2019-02-17T18:14:50.548Z,13.17
2019-02-17T18:17:17.758Z,13.63
2019-02-17T18:19:44.932Z,13.33
2019-02-17T18:22:12.401Z,12.97
2019-02-17T18:24:39.587Z,14.50
2019-02-17T18:27:07.046Z,13.67
2019-02-17T18:29:34.231Z,13.90
2019-02-17T18:32:01.400Z,14.27
2019-02-17T18:34:28.934Z,13.83
2019-02-17T18:36:56.133Z,15.70
2019-02-17T18:39:23.622Z,14.87
2019-02-17T18:41:50.819Z,14.57
2019-02-17T18:44:18.003Z,15.47
2019-02-17T18:46:45.333Z,14.13
2019-02-17T18:49:12.881Z,14.37
2019-02-17T18:51:41.723Z,16.30
2019-02-17T18:54:08.973Z,15.43
2019-02-17T18:56:36.658Z,13.43
2019-02-17T18:59:03.844Z,16.63
2019-02-17T19:01:31.658Z,14.93
2019-02-17T19:03:58.827Z,14.67
2019-02-17T19:06:26.463Z,14.67
2019-02-17T19:08:53.741Z,15.63
2019-02-17T19:11:21.048Z,15.70
2019-02-17T19:13:48.358Z,21.30
2019-02-17T19:16:16.770Z,17.90
2019-02-17T19:18:43.994Z,16.43
2019-02-17T19:21:11.183Z,16.03
2019-02-17T19:23:38.435Z,16.23
2019-02-17T19:26:05.635Z,15.70
2019-02-17T19:28:32.836Z,17.20
2019-02-17T19:31:00.023Z,15.67
2019-02-17T19:33:27.883Z,16.57
2019-02-17T19:35:55.065Z,15.80
2019-02-17T19:38:22.288Z,16.20
2019-02-17T19:40:49.487Z,16.87
2019-02-17T19:43:16.790Z,16.80
2019-02-17T19:45:44.106Z,17.33
2019-02-17T19:48:11.395Z,16.00
2019-02-17T19:50:38.580Z,15.73
2019-02-17T19:53:06.330Z,15.73
2019-02-17T19:55:33.529Z,16.40
2019-02-17T19:58:01.784Z,15.00
2019-02-17T20:00:29.706Z,15.13
2019-02-17T20:03:16.421Z,14.20
2019-02-17T20:05:54.380Z,15.13
2019-02-17T20:08:21.576Z,13.97
2019-02-17T20:10:49.376Z,15.03
2019-02-17T20:13:17.091Z,13.30
2019-02-17T20:15:44.292Z,15.17
2019-02-17T20:18:11.485Z,14.93
2019-02-17T20:20:38.677Z,15.13
2019-02-17T20:23:07.071Z,14.70
2019-02-17T20:25:34.248Z,14.83
2019-02-17T20:28:01.689Z,14.60
2019-02-17T20:30:29.503Z,13.87
2019-02-17T20:32:56.757Z,14.17
2019-02-17T20:35:23.954Z,17.03
2019-02-17T20:37:51.148Z,13.90
2019-02-17T20:40:18.343Z,15.37
2019-02-17T20:42:45.525Z,14.63
2019-02-17T20:45:12.697Z,15.33
2019-02-17T20:47:39.920Z,14.60
2019-02-17T20:50:09.115Z,16.50
2019-02-17T20:52:36.322Z,14.20
2019-02-17T20:55:05.227Z,16.53
2019-02-17T20:57:32.429Z,16.00
2019-02-17T20:59:59.613Z,14.97
2019-02-17T21:02:26.795Z,16.07
2019-02-17T21:04:53.998Z,16.47
2019-02-17T21:07:21.200Z,15.60
2019-02-17T21:09:48.397Z,14.00
2019-02-17T21:12:15.830Z,14.57
2019-02-17T21:14:43.467Z,15.03
2019-02-17T21:17:10.670Z,15.20
2019-02-17T21:19:37.993Z,14.77
2019-02-17T21:22:05.274Z,15.43
2019-02-17T21:24:32.441Z,14.77
2019-02-17T21:26:59.669Z,14.77
2019-02-17T21:29:26.859Z,14.77
2019-02-17T21:31:54.031Z,15.77
2019-02-17T21:34:21.225Z,16.07
2019-02-17T21:36:48.401Z,17.00
2019-02-17T21:39:15.586Z,16.33
2019-02-17T21:41:42.765Z,15.33
2019-02-17T21:44:09.941Z,16.10
2019-02-17T21:46:37.127Z,15.27
2019-02-17T21:49:04.318Z,14.60
2019-02-17T21:51:32.048Z,14.73
2019-02-17T21:53:59.230Z,16.93
2019-02-17T21:56:26.417Z,15.50
2019-02-17T21:58:53.663Z,16.67
2019-02-17T22:01:20.855Z,14.73
2019-02-17T22:03:48.505Z,15.13
2019-02-17T22:06:15.678Z,16.67
2019-02-17T22:08:42.902Z,15.23
2019-02-17T22:11:10.074Z,15.47
2019-02-17T22:13:37.256Z,15.43
2019-02-17T22:16:04.442Z,16.07
2019-02-17T22:18:31.657Z,16.50
2019-02-17T22:20:59.260Z,15.77
2019-02-17T22:23:26.455Z,17.53
2019-02-17T22:25:53.741Z,15.40
2019-02-17T22:28:20.978Z,15.50
2019-02-17T22:30:48.173Z,16.77
2019-02-17T22:33:15.372Z,16.20
2019-02-17T22:35:42.969Z,16.70
2019-02-17T22:38:10.180Z,15.23
2019-02-17T22:40:37.359Z,15.20
2019-02-17T22:43:04.552Z,15.47
2019-02-17T22:45:31.717Z,15.07
2019-02-17T22:47:58.923Z,15.00
2019-02-17T22:50:26.095Z,16.43
2019-02-17T22:52:53.283Z,19.43
2019-02-17T22:55:21.016Z,14.50
2019-02-17T22:57:48.194Z,15.33
2019-02-17T23:00:30.274Z,15.17
2019-02-17T23:02:57.709Z,14.43
2019-02-17T23:05:24.899Z,15.53
2019-02-17T23:07:52.078Z,16.63
2019-02-17T23:10:19.843Z,16.27
2019-02-17T23:12:47.019Z,14.97
2019-02-17T23:15:14.795Z,14.53
2019-02-17T23:17:41.970Z,15.50
2019-02-17T23:20:09.138Z,14.23
2019-02-17T23:22:36.332Z,16.67
2019-02-17T23:25:04.794Z,14.77
2019-02-17T23:27:31.962Z,16.03
2019-02-17T23:29:59.174Z,15.40
2019-02-17T23:32:26.787Z,14.90
2019-02-17T23:34:54.434Z,15.90
2019-02-17T23:37:21.629Z,14.27
2019-02-17T23:39:48.900Z,14.77
2019-02-17T23:42:16.611Z,16.67
2019-02-17T23:44:43.794Z,16.93
2019-02-17T23:47:10.970Z,15.80
2019-02-17T23:49:38.163Z,16.20
2019-02-17T23:52:05.806Z,15.90
2019-02-17T23:54:33.066Z,15.93
2019-02-17T23:57:00.238Z,15.33
2019-02-17T23:59:27.973Z,14.83
